RJFU(METAR)
02/01 21:00
METAR RJFU 011200Z 31010KT CAVOK 10/04 Q1018 RMK A3007=
戻る
トップページへ戻る
IMOC Co,.Ltd.